sensor_id;sensor_type;location;lat;lon;timestamp;P1;durP1;ratioP1;P2;durP2;ratioP2
62338;SDS011;48368;53.406;6.214;2023-12-07T00:00:18;11.85;;;6.65;;
62338;SDS011;48368;53.406;6.214;2023-12-07T00:02:44;11.35;;;6.57;;
62338;SDS011;48368;53.406;6.214;2023-12-07T00:05:09;12.00;;;6.78;;
62338;SDS011;48368;53.406;6.214;2023-12-07T00:07:35;13.32;;;7.28;;
62338;SDS011;48368;53.406;6.214;2023-12-07T00:10:01;12.98;;;7.78;;
62338;SDS011;48368;53.406;6.214;2023-12-07T00:12:26;11.10;;;7.00;;
62338;SDS011;48368;53.406;6.214;2023-12-07T00:15:04;14.60;;;6.95;;
62338;SDS011;48368;53.406;6.214;2023-12-07T00:17:34;16.40;;;7.80;;
62338;SDS011;48368;53.406;6.214;2023-12-07T00:20:06;14.43;;;8.10;;
62338;SDS011;48368;53.406;6.214;2023-12-07T00:22:32;13.35;;;7.55;;
62338;SDS011;48368;53.406;6.214;2023-12-07T00:25:03;14.70;;;7.28;;
62338;SDS011;48368;53.406;6.214;2023-12-07T00:27:30;13.02;;;7.35;;
62338;SDS011;48368;53.406;6.214;2023-12-07T00:29:56;13.95;;;7.80;;
62338;SDS011;48368;53.406;6.214;2023-12-07T00:32:21;35.45;;;10.05;;
62338;SDS011;48368;53.406;6.214;2023-12-07T00:34:47;12.93;;;7.35;;
62338;SDS011;48368;53.406;6.214;2023-12-07T00:37:14;13.40;;;7.55;;
62338;SDS011;48368;53.406;6.214;2023-12-07T00:39:40;12.65;;;7.10;;
62338;SDS011;48368;53.406;6.214;2023-12-07T00:42:06;14.10;;;7.55;;
62338;SDS011;48368;53.406;6.214;2023-12-07T00:44:32;17.35;;;8.13;;
62338;SDS011;48368;53.406;6.214;2023-12-07T00:46:57;13.32;;;7.60;;
62338;SDS011;48368;53.406;6.214;2023-12-07T00:49:23;17.92;;;8.43;;
62338;SDS011;48368;53.406;6.214;2023-12-07T00:51:48;16.45;;;8.93;;
62338;SDS011;48368;53.406;6.214;2023-12-07T00:54:14;14.27;;;7.95;;
62338;SDS011;48368;53.406;6.214;2023-12-07T00:56:40;14.40;;;8.20;;
62338;SDS011;48368;53.406;6.214;2023-12-07T00:59:05;15.70;;;7.90;;
62338;SDS011;48368;53.406;6.214;2023-12-07T01:01:32;13.55;;;7.70;;
62338;SDS011;48368;53.406;6.214;2023-12-07T01:03:57;15.45;;;8.02;;
62338;SDS011;48368;53.406;6.214;2023-12-07T01:06:23;14.10;;;8.05;;
62338;SDS011;48368;53.406;6.214;2023-12-07T01:08:48;17.23;;;8.20;;
62338;SDS011;48368;53.406;6.214;2023-12-07T01:11:14;14.93;;;7.97;;
62338;SDS011;48368;53.406;6.214;2023-12-07T01:13:40;16.40;;;8.55;;
62338;SDS011;48368;53.406;6.214;2023-12-07T01:16:09;15.90;;;8.27;;
62338;SDS011;48368;53.406;6.214;2023-12-07T01:18:35;16.92;;;8.80;;
62338;SDS011;48368;53.406;6.214;2023-12-07T01:21:00;17.00;;;8.48;;
62338;SDS011;48368;53.406;6.214;2023-12-07T01:23:26;16.98;;;8.55;;
62338;SDS011;48368;53.406;6.214;2023-12-07T01:25:52;13.77;;;8.15;;
62338;SDS011;48368;53.406;6.214;2023-12-07T01:28:17;13.68;;;8.23;;
62338;SDS011;48368;53.406;6.214;2023-12-07T01:30:43;16.98;;;8.02;;
62338;SDS011;48368;53.406;6.214;2023-12-07T01:33:08;15.93;;;8.32;;
62338;SDS011;48368;53.406;6.214;2023-12-07T01:35:34;15.95;;;8.55;;
62338;SDS011;48368;53.406;6.214;2023-12-07T01:37:59;14.77;;;8.68;;
62338;SDS011;48368;53.406;6.214;2023-12-07T01:40:25;14.90;;;8.07;;
62338;SDS011;48368;53.406;6.214;2023-12-07T01:42:51;13.38;;;7.95;;
62338;SDS011;48368;53.406;6.214;2023-12-07T01:45:18;13.63;;;7.95;;
62338;SDS011;48368;53.406;6.214;2023-12-07T01:47:44;13.73;;;7.70;;
62338;SDS011;48368;53.406;6.214;2023-12-07T01:50:11;13.32;;;7.38;;
62338;SDS011;48368;53.406;6.214;2023-12-07T01:52:45;14.73;;;8.20;;
62338;SDS011;48368;53.406;6.214;2023-12-07T01:55:13;13.00;;;7.40;;
62338;SDS011;48368;53.406;6.214;2023-12-07T01:57:40;14.82;;;7.25;;
62338;SDS011;48368;53.406;6.214;2023-12-07T02:00:08;14.68;;;8.23;;
62338;SDS011;48368;53.406;6.214;2023-12-07T02:02:34;15.35;;;7.57;;
62338;SDS011;48368;53.406;6.214;2023-12-07T02:05:01;15.77;;;8.38;;
62338;SDS011;48368;53.406;6.214;2023-12-07T02:07:27;17.25;;;7.85;;
62338;SDS011;48368;53.406;6.214;2023-12-07T02:09:53;12.68;;;7.28;;
62338;SDS011;48368;53.406;6.214;2023-12-07T02:12:19;15.10;;;7.63;;
62338;SDS011;48368;53.406;6.214;2023-12-07T02:14:45;17.58;;;7.90;;
62338;SDS011;48368;53.406;6.214;2023-12-07T02:20:05;14.15;;;7.90;;
62338;SDS011;48368;53.406;6.214;2023-12-07T02:22:47;13.23;;;7.82;;
62338;SDS011;48368;53.406;6.214;2023-12-07T02:25:23;19.02;;;8.32;;
62338;SDS011;48368;53.406;6.214;2023-12-07T02:28:09;11.98;;;6.78;;
62338;SDS011;48368;53.406;6.214;2023-12-07T02:30:35;16.55;;;8.27;;
62338;SDS011;48368;53.406;6.214;2023-12-07T02:33:01;13.13;;;6.80;;
62338;SDS011;48368;53.406;6.214;2023-12-07T02:35:27;15.85;;;7.68;;
62338;SDS011;48368;53.406;6.214;2023-12-07T02:37:53;11.85;;;7.22;;
62338;SDS011;48368;53.406;6.214;2023-12-07T02:40:23;11.98;;;7.05;;
62338;SDS011;48368;53.406;6.214;2023-12-07T02:42:52;13.50;;;7.72;;
62338;SDS011;48368;53.406;6.214;2023-12-07T02:45:18;14.18;;;6.72;;
62338;SDS011;48368;53.406;6.214;2023-12-07T02:47:44;14.98;;;7.40;;
62338;SDS011;48368;53.406;6.214;2023-12-07T02:50:10;12.77;;;7.30;;
62338;SDS011;48368;53.406;6.214;2023-12-07T02:52:37;14.25;;;7.40;;
62338;SDS011;48368;53.406;6.214;2023-12-07T02:55:03;12.18;;;6.45;;
62338;SDS011;48368;53.406;6.214;2023-12-07T02:57:30;14.80;;;7.10;;
62338;SDS011;48368;53.406;6.214;2023-12-07T02:59:57;13.23;;;7.10;;
62338;SDS011;48368;53.406;6.214;2023-12-07T03:02:23;16.40;;;7.63;;
62338;SDS011;48368;53.406;6.214;2023-12-07T03:04:48;15.07;;;7.55;;
62338;SDS011;48368;53.406;6.214;2023-12-07T03:07:17;15.05;;;7.57;;
62338;SDS011;48368;53.406;6.214;2023-12-07T03:09:44;17.48;;;7.80;;
62338;SDS011;48368;53.406;6.214;2023-12-07T03:12:16;14.40;;;7.47;;
62338;SDS011;48368;53.406;6.214;2023-12-07T03:14:45;18.63;;;9.05;;
62338;SDS011;48368;53.406;6.214;2023-12-07T03:17:29;18.33;;;7.03;;
62338;SDS011;48368;53.406;6.214;2023-12-07T03:20:13;16.17;;;8.30;;
62338;SDS011;48368;53.406;6.214;2023-12-07T03:22:42;16.23;;;7.72;;
62338;SDS011;48368;53.406;6.214;2023-12-07T03:25:10;16.80;;;8.23;;
62338;SDS011;48368;53.406;6.214;2023-12-07T03:27:36;15.45;;;8.30;;
62338;SDS011;48368;53.406;6.214;2023-12-07T03:30:01;23.85;;;8.15;;
62338;SDS011;48368;53.406;6.214;2023-12-07T03:32:27;16.60;;;8.35;;
62338;SDS011;48368;53.406;6.214;2023-12-07T03:34:53;17.10;;;8.68;;
62338;SDS011;48368;53.406;6.214;2023-12-07T03:37:18;14.20;;;8.15;;
62338;SDS011;48368;53.406;6.214;2023-12-07T03:39:44;16.25;;;8.52;;
62338;SDS011;48368;53.406;6.214;2023-12-07T03:42:10;15.82;;;8.07;;
62338;SDS011;48368;53.406;6.214;2023-12-07T03:44:35;13.65;;;7.55;;
62338;SDS011;48368;53.406;6.214;2023-12-07T03:47:01;15.88;;;8.02;;
62338;SDS011;48368;53.406;6.214;2023-12-07T03:49:26;17.73;;;7.30;;
62338;SDS011;48368;53.406;6.214;2023-12-07T03:51:52;15.25;;;7.70;;
62338;SDS011;48368;53.406;6.214;2023-12-07T03:54:17;17.05;;;8.15;;
62338;SDS011;48368;53.406;6.214;2023-12-07T03:56:43;13.73;;;7.25;;
62338;SDS011;48368;53.406;6.214;2023-12-07T03:59:09;14.55;;;7.57;;
62338;SDS011;48368;53.406;6.214;2023-12-07T04:01:35;16.25;;;8.30;;
62338;SDS011;48368;53.406;6.214;2023-12-07T04:04:00;20.20;;;8.27;;
62338;SDS011;48368;53.406;6.214;2023-12-07T04:06:26;14.00;;;7.40;;
62338;SDS011;48368;53.406;6.214;2023-12-07T04:08:52;14.15;;;8.88;;
62338;SDS011;48368;53.406;6.214;2023-12-07T04:11:18;14.32;;;7.63;;
62338;SDS011;48368;53.406;6.214;2023-12-07T04:13:44;12.93;;;6.93;;
62338;SDS011;48368;53.406;6.214;2023-12-07T04:16:10;14.93;;;7.50;;
62338;SDS011;48368;53.406;6.214;2023-12-07T04:18:36;16.27;;;8.20;;
62338;SDS011;48368;53.406;6.214;2023-12-07T04:21:02;12.77;;;7.40;;
62338;SDS011;48368;53.406;6.214;2023-12-07T04:23:28;14.75;;;7.15;;
62338;SDS011;48368;53.406;6.214;2023-12-07T04:25:54;14.68;;;7.50;;
62338;SDS011;48368;53.406;6.214;2023-12-07T04:28:20;17.20;;;7.88;;
62338;SDS011;48368;53.406;6.214;2023-12-07T04:30:45;13.98;;;6.63;;
62338;SDS011;48368;53.406;6.214;2023-12-07T04:33:11;13.25;;;6.63;;
62338;SDS011;48368;53.406;6.214;2023-12-07T04:35:37;11.90;;;6.80;;
62338;SDS011;48368;53.406;6.214;2023-12-07T04:38:02;17.23;;;7.95;;
62338;SDS011;48368;53.406;6.214;2023-12-07T04:40:28;14.52;;;8.23;;
62338;SDS011;48368;53.406;6.214;2023-12-07T04:42:53;15.15;;;6.88;;
62338;SDS011;48368;53.406;6.214;2023-12-07T04:45:22;15.65;;;8.00;;
62338;SDS011;48368;53.406;6.214;2023-12-07T04:47:53;12.27;;;6.72;;
62338;SDS011;48368;53.406;6.214;2023-12-07T04:50:19;12.73;;;7.07;;
62338;SDS011;48368;53.406;6.214;2023-12-07T04:52:44;14.57;;;7.25;;
62338;SDS011;48368;53.406;6.214;2023-12-07T04:55:10;12.65;;;6.57;;
62338;SDS011;48368;53.406;6.214;2023-12-07T04:57:36;13.48;;;6.68;;
62338;SDS011;48368;53.406;6.214;2023-12-07T05:00:02;14.13;;;6.95;;
62338;SDS011;48368;53.406;6.214;2023-12-07T05:02:31;15.07;;;7.53;;
62338;SDS011;48368;53.406;6.214;2023-12-07T05:04:57;12.80;;;6.75;;
62338;SDS011;48368;53.406;6.214;2023-12-07T05:07:22;13.25;;;6.88;;
62338;SDS011;48368;53.406;6.214;2023-12-07T05:09:49;11.82;;;6.60;;
62338;SDS011;48368;53.406;6.214;2023-12-07T05:12:16;15.38;;;6.50;;
62338;SDS011;48368;53.406;6.214;2023-12-07T05:14:42;14.50;;;7.20;;
62338;SDS011;48368;53.406;6.214;2023-12-07T05:17:08;13.52;;;7.60;;
62338;SDS011;48368;53.406;6.214;2023-12-07T05:19:33;12.50;;;7.05;;
62338;SDS011;48368;53.406;6.214;2023-12-07T05:21:59;13.85;;;6.90;;
62338;SDS011;48368;53.406;6.214;2023-12-07T05:24:25;13.13;;;7.28;;
62338;SDS011;48368;53.406;6.214;2023-12-07T05:26:50;15.75;;;7.63;;
62338;SDS011;48368;53.406;6.214;2023-12-07T05:29:17;15.18;;;7.55;;
62338;SDS011;48368;53.406;6.214;2023-12-07T05:31:48;13.77;;;7.25;;
62338;SDS011;48368;53.406;6.214;2023-12-07T05:34:15;15.63;;;7.93;;
62338;SDS011;48368;53.406;6.214;2023-12-07T05:36:41;13.27;;;7.30;;
62338;SDS011;48368;53.406;6.214;2023-12-07T05:39:07;13.77;;;7.25;;
62338;SDS011;48368;53.406;6.214;2023-12-07T05:41:32;15.25;;;7.13;;
62338;SDS011;48368;53.406;6.214;2023-12-07T05:43:58;15.02;;;7.93;;
62338;SDS011;48368;53.406;6.214;2023-12-07T05:46:24;12.98;;;6.88;;
62338;SDS011;48368;53.406;6.214;2023-12-07T05:48:49;16.88;;;7.68;;
62338;SDS011;48368;53.406;6.214;2023-12-07T05:51:18;14.40;;;7.53;;
62338;SDS011;48368;53.406;6.214;2023-12-07T05:53:45;15.05;;;7.38;;
62338;SDS011;48368;53.406;6.214;2023-12-07T05:56:11;12.38;;;7.10;;
62338;SDS011;48368;53.406;6.214;2023-12-07T05:58:37;13.52;;;6.65;;
62338;SDS011;48368;53.406;6.214;2023-12-07T06:01:03;13.70;;;6.93;;
62338;SDS011;48368;53.406;6.214;2023-12-07T06:03:29;15.15;;;7.70;;
62338;SDS011;48368;53.406;6.214;2023-12-07T06:05:54;13.30;;;7.18;;
62338;SDS011;48368;53.406;6.214;2023-12-07T06:08:21;13.88;;;6.65;;
62338;SDS011;48368;53.406;6.214;2023-12-07T06:10:47;13.05;;;7.10;;
62338;SDS011;48368;53.406;6.214;2023-12-07T06:13:13;13.40;;;7.40;;
62338;SDS011;48368;53.406;6.214;2023-12-07T06:15:39;11.77;;;7.25;;
62338;SDS011;48368;53.406;6.214;2023-12-07T06:18:05;12.48;;;6.03;;
62338;SDS011;48368;53.406;6.214;2023-12-07T06:20:31;13.68;;;6.78;;
62338;SDS011;48368;53.406;6.214;2023-12-07T06:22:56;12.32;;;7.15;;
62338;SDS011;48368;53.406;6.214;2023-12-07T06:25:23;13.38;;;7.15;;
62338;SDS011;48368;53.406;6.214;2023-12-07T06:27:48;11.68;;;6.30;;
62338;SDS011;48368;53.406;6.214;2023-12-07T06:30:14;12.82;;;6.88;;
62338;SDS011;48368;53.406;6.214;2023-12-07T06:32:40;10.88;;;6.28;;
62338;SDS011;48368;53.406;6.214;2023-12-07T06:35:06;13.98;;;5.95;;
62338;SDS011;48368;53.406;6.214;2023-12-07T06:37:32;10.98;;;6.70;;
62338;SDS011;48368;53.406;6.214;2023-12-07T06:39:58;11.35;;;6.20;;
62338;SDS011;48368;53.406;6.214;2023-12-07T06:42:26;9.55;;;5.72;;
62338;SDS011;48368;53.406;6.214;2023-12-07T06:44:55;11.15;;;6.45;;
62338;SDS011;48368;53.406;6.214;2023-12-07T06:47:20;10.35;;;5.68;;
62338;SDS011;48368;53.406;6.214;2023-12-07T06:49:46;11.18;;;6.65;;
62338;SDS011;48368;53.406;6.214;2023-12-07T06:52:12;12.52;;;6.43;;
62338;SDS011;48368;53.406;6.214;2023-12-07T06:54:38;13.52;;;6.55;;
62338;SDS011;48368;53.406;6.214;2023-12-07T06:57:04;13.70;;;6.63;;
62338;SDS011;48368;53.406;6.214;2023-12-07T06:59:32;13.50;;;6.40;;
62338;SDS011;48368;53.406;6.214;2023-12-07T07:01:58;11.65;;;6.55;;
62338;SDS011;48368;53.406;6.214;2023-12-07T07:04:23;11.48;;;6.20;;
62338;SDS011;48368;53.406;6.214;2023-12-07T07:06:49;13.35;;;5.95;;
62338;SDS011;48368;53.406;6.214;2023-12-07T07:09:15;14.68;;;7.43;;
62338;SDS011;48368;53.406;6.214;2023-12-07T07:11:40;14.13;;;6.18;;
62338;SDS011;48368;53.406;6.214;2023-12-07T07:14:07;11.80;;;6.43;;
62338;SDS011;48368;53.406;6.214;2023-12-07T07:16:32;11.50;;;6.72;;
62338;SDS011;48368;53.406;6.214;2023-12-07T07:18:58;11.52;;;6.75;;
62338;SDS011;48368;53.406;6.214;2023-12-07T07:21:24;12.02;;;6.72;;
62338;SDS011;48368;53.406;6.214;2023-12-07T07:23:49;14.55;;;7.30;;
62338;SDS011;48368;53.406;6.214;2023-12-07T07:26:15;12.38;;;6.60;;
62338;SDS011;48368;53.406;6.214;2023-12-07T07:28:42;13.00;;;6.68;;
62338;SDS011;48368;53.406;6.214;2023-12-07T07:31:08;14.15;;;6.65;;
62338;SDS011;48368;53.406;6.214;2023-12-07T07:33:34;14.27;;;7.20;;
62338;SDS011;48368;53.406;6.214;2023-12-07T07:36:00;11.88;;;6.40;;
62338;SDS011;48368;53.406;6.214;2023-12-07T07:38:26;11.27;;;6.45;;
62338;SDS011;48368;53.406;6.214;2023-12-07T07:40:51;12.45;;;6.85;;
62338;SDS011;48368;53.406;6.214;2023-12-07T07:43:17;14.88;;;7.07;;
62338;SDS011;48368;53.406;6.214;2023-12-07T07:45:43;15.95;;;8.02;;
62338;SDS011;48368;53.406;6.214;2023-12-07T07:48:09;14.25;;;6.68;;
62338;SDS011;48368;53.406;6.214;2023-12-07T07:50:34;15.20;;;7.20;;
62338;SDS011;48368;53.406;6.214;2023-12-07T07:53:01;12.60;;;7.35;;
62338;SDS011;48368;53.406;6.214;2023-12-07T07:55:29;13.90;;;6.90;;
62338;SDS011;48368;53.406;6.214;2023-12-07T07:57:56;15.27;;;7.35;;
62338;SDS011;48368;53.406;6.214;2023-12-07T08:00:21;14.93;;;7.75;;
62338;SDS011;48368;53.406;6.214;2023-12-07T08:02:49;16.08;;;8.35;;
62338;SDS011;48368;53.406;6.214;2023-12-07T08:05:15;14.82;;;8.77;;
62338;SDS011;48368;53.406;6.214;2023-12-07T08:07:40;15.88;;;8.68;;
62338;SDS011;48368;53.406;6.214;2023-12-07T08:24:03;20.13;;;11.02;;
62338;SDS011;48368;53.406;6.214;2023-12-07T08:26:34;19.40;;;12.05;;
62338;SDS011;48368;53.406;6.214;2023-12-07T08:29:05;25.00;;;13.30;;
62338;SDS011;48368;53.406;6.214;2023-12-07T08:31:37;24.15;;;14.32;;
62338;SDS011;48368;53.406;6.214;2023-12-07T08:34:11;28.67;;;13.70;;
62338;SDS011;48368;53.406;6.214;2023-12-07T08:39:08;24.08;;;12.30;;
62338;SDS011;48368;53.406;6.214;2023-12-07T08:41:35;25.83;;;14.57;;
62338;SDS011;48368;53.406;6.214;2023-12-07T08:44:02;23.75;;;13.73;;
62338;SDS011;48368;53.406;6.214;2023-12-07T08:46:37;24.13;;;11.48;;
62338;SDS011;48368;53.406;6.214;2023-12-07T08:49:11;20.42;;;10.65;;
62338;SDS011;48368;53.406;6.214;2023-12-07T08:51:52;18.73;;;10.40;;
62338;SDS011;48368;53.406;6.214;2023-12-07T08:54:37;20.50;;;11.15;;
62338;SDS011;48368;53.406;6.214;2023-12-07T08:57:12;22.80;;;10.82;;
62338;SDS011;48368;53.406;6.214;2023-12-07T08:59:37;15.75;;;8.93;;
62338;SDS011;48368;53.406;6.214;2023-12-07T09:02:06;18.08;;;10.20;;
62338;SDS011;48368;53.406;6.214;2023-12-07T09:04:32;18.58;;;10.18;;
62338;SDS011;48368;53.406;6.214;2023-12-07T09:06:57;17.55;;;9.30;;
62338;SDS011;48368;53.406;6.214;2023-12-07T09:09:33;20.13;;;10.23;;
62338;SDS011;48368;53.406;6.214;2023-12-07T09:12:15;21.58;;;11.00;;
62338;SDS011;48368;53.406;6.214;2023-12-07T09:14:43;20.88;;;9.88;;
62338;SDS011;48368;53.406;6.214;2023-12-07T09:17:32;18.80;;;10.73;;
62338;SDS011;48368;53.406;6.214;2023-12-07T09:20:01;21.27;;;10.55;;
62338;SDS011;48368;53.406;6.214;2023-12-07T09:22:44;23.35;;;11.80;;
62338;SDS011;48368;53.406;6.214;2023-12-07T09:25:11;21.00;;;12.27;;
62338;SDS011;48368;53.406;6.214;2023-12-07T09:27:38;22.20;;;11.77;;
62338;SDS011;48368;53.406;6.214;2023-12-07T09:30:07;22.40;;;11.20;;
62338;SDS011;48368;53.406;6.214;2023-12-07T09:32:38;22.75;;;11.43;;
62338;SDS011;48368;53.406;6.214;2023-12-07T09:35:08;18.95;;;10.02;;
62338;SDS011;48368;53.406;6.214;2023-12-07T09:37:43;21.77;;;11.40;;
62338;SDS011;48368;53.406;6.214;2023-12-07T09:40:14;20.55;;;10.48;;
62338;SDS011;48368;53.406;6.214;2023-12-07T09:42:41;20.90;;;11.18;;
62338;SDS011;48368;53.406;6.214;2023-12-07T09:45:08;18.95;;;11.15;;
62338;SDS011;48368;53.406;6.214;2023-12-07T09:47:34;26.95;;;16.08;;
62338;SDS011;48368;53.406;6.214;2023-12-07T09:50:03;20.15;;;11.70;;
62338;SDS011;48368;53.406;6.214;2023-12-07T09:52:35;24.97;;;13.30;;
62338;SDS011;48368;53.406;6.214;2023-12-07T09:55:04;21.92;;;12.77;;
62338;SDS011;48368;53.406;6.214;2023-12-07T09:57:31;24.88;;;12.52;;
62338;SDS011;48368;53.406;6.214;2023-12-07T09:59:57;26.35;;;13.38;;
62338;SDS011;48368;53.406;6.214;2023-12-07T10:02:23;24.88;;;13.73;;
62338;SDS011;48368;53.406;6.214;2023-12-07T10:05:03;28.58;;;14.88;;
62338;SDS011;48368;53.406;6.214;2023-12-07T10:07:33;22.90;;;12.98;;
62338;SDS011;48368;53.406;6.214;2023-12-07T10:10:03;26.67;;;14.45;;
62338;SDS011;48368;53.406;6.214;2023-12-07T10:12:30;24.48;;;14.35;;
62338;SDS011;48368;53.406;6.214;2023-12-07T10:14:58;27.30;;;15.90;;
62338;SDS011;48368;53.406;6.214;2023-12-07T10:17:28;26.38;;;14.38;;
62338;SDS011;48368;53.406;6.214;2023-12-07T10:20:15;23.38;;;13.60;;
62338;SDS011;48368;53.406;6.214;2023-12-07T10:22:48;24.50;;;13.32;;
62338;SDS011;48368;53.406;6.214;2023-12-07T10:25:26;35.67;;;18.48;;
62338;SDS011;48368;53.406;6.214;2023-12-07T10:27:51;27.92;;;15.38;;
62338;SDS011;48368;53.406;6.214;2023-12-07T10:30:17;27.08;;;15.73;;
62338;SDS011;48368;53.406;6.214;2023-12-07T10:32:49;26.10;;;14.88;;
62338;SDS011;48368;53.406;6.214;2023-12-07T10:35:16;24.35;;;13.93;;
62338;SDS011;48368;53.406;6.214;2023-12-07T10:37:42;31.20;;;14.50;;
62338;SDS011;48368;53.406;6.214;2023-12-07T10:40:08;24.85;;;13.52;;
62338;SDS011;48368;53.406;6.214;2023-12-07T10:42:34;24.30;;;13.52;;
62338;SDS011;48368;53.406;6.214;2023-12-07T10:45:05;21.92;;;12.63;;
62338;SDS011;48368;53.406;6.214;2023-12-07T10:47:33;25.77;;;14.25;;
62338;SDS011;48368;53.406;6.214;2023-12-07T10:50:01;23.65;;;13.73;;
62338;SDS011;48368;53.406;6.214;2023-12-07T10:52:31;25.05;;;14.15;;
62338;SDS011;48368;53.406;6.214;2023-12-07T10:55:03;21.13;;;12.90;;
62338;SDS011;48368;53.406;6.214;2023-12-07T10:57:32;22.95;;;13.88;;
62338;SDS011;48368;53.406;6.214;2023-12-07T11:00:00;25.95;;;14.73;;
62338;SDS011;48368;53.406;6.214;2023-12-07T11:02:27;25.23;;;15.05;;
62338;SDS011;48368;53.406;6.214;2023-12-07T11:04:57;25.92;;;15.05;;
62338;SDS011;48368;53.406;6.214;2023-12-07T11:07:24;26.65;;;15.35;;
62338;SDS011;48368;53.406;6.214;2023-12-07T11:09:58;27.73;;;14.40;;
62338;SDS011;48368;53.406;6.214;2023-12-07T11:12:33;27.98;;;16.10;;
62338;SDS011;48368;53.406;6.214;2023-12-07T11:15:04;26.20;;;15.48;;
62338;SDS011;48368;53.406;6.214;2023-12-07T11:20:40;22.17;;;13.05;;
62338;SDS011;48368;53.406;6.214;2023-12-07T11:23:19;23.33;;;13.10;;
62338;SDS011;48368;53.406;6.214;2023-12-07T11:25:49;24.77;;;13.35;;
62338;SDS011;48368;53.406;6.214;2023-12-07T11:28:17;23.33;;;12.73;;
62338;SDS011;48368;53.406;6.214;2023-12-07T11:30:44;22.50;;;12.50;;
62338;SDS011;48368;53.406;6.214;2023-12-07T11:33:19;24.40;;;13.05;;
62338;SDS011;48368;53.406;6.214;2023-12-07T11:41:44;22.17;;;13.15;;
62338;SDS011;48368;53.406;6.214;2023-12-07T11:44:17;25.00;;;13.25;;
62338;SDS011;48368;53.406;6.214;2023-12-07T11:46:57;28.58;;;12.93;;
62338;SDS011;48368;53.406;6.214;2023-12-07T11:49:23;22.63;;;12.90;;
62338;SDS011;48368;53.406;6.214;2023-12-07T11:51:49;22.98;;;13.38;;
62338;SDS011;48368;53.406;6.214;2023-12-07T11:54:30;21.33;;;13.07;;
62338;SDS011;48368;53.406;6.214;2023-12-07T11:56:56;23.02;;;12.85;;
62338;SDS011;48368;53.406;6.214;2023-12-07T11:59:22;24.27;;;13.25;;
62338;SDS011;48368;53.406;6.214;2023-12-07T12:01:52;21.35;;;13.43;;
62338;SDS011;48368;53.406;6.214;2023-12-07T12:04:18;24.27;;;12.40;;
62338;SDS011;48368;53.406;6.214;2023-12-07T12:07:14;20.77;;;12.88;;
62338;SDS011;48368;53.406;6.214;2023-12-07T12:09:39;22.15;;;11.88;;
62338;SDS011;48368;53.406;6.214;2023-12-07T12:12:05;25.20;;;15.43;;
62338;SDS011;48368;53.406;6.214;2023-12-07T12:14:31;23.63;;;13.77;;
62338;SDS011;48368;53.406;6.214;2023-12-07T12:17:08;22.67;;;13.60;;
62338;SDS011;48368;53.406;6.214;2023-12-07T12:19:49;21.65;;;14.23;;
62338;SDS011;48368;53.406;6.214;2023-12-07T12:22:23;23.83;;;14.60;;
62338;SDS011;48368;53.406;6.214;2023-12-07T12:24:49;22.95;;;14.05;;
62338;SDS011;48368;53.406;6.214;2023-12-07T12:27:14;22.52;;;14.57;;
62338;SDS011;48368;53.406;6.214;2023-12-07T12:29:53;27.80;;;15.13;;
62338;SDS011;48368;53.406;6.214;2023-12-07T12:35:11;20.38;;;12.32;;
62338;SDS011;48368;53.406;6.214;2023-12-07T12:37:42;20.10;;;12.55;;
62338;SDS011;48368;53.406;6.214;2023-12-07T12:40:11;19.65;;;12.68;;
62338;SDS011;48368;53.406;6.214;2023-12-07T12:43:19;22.63;;;12.35;;
62338;SDS011;48368;53.406;6.214;2023-12-07T12:45:46;20.05;;;11.48;;
62338;SDS011;48368;53.406;6.214;2023-12-07T12:48:21;21.65;;;13.05;;
62338;SDS011;48368;53.406;6.214;2023-12-07T12:50:53;22.60;;;12.75;;
62338;SDS011;48368;53.406;6.214;2023-12-07T12:53:31;22.20;;;13.27;;
62338;SDS011;48368;53.406;6.214;2023-12-07T12:56:12;25.10;;;13.75;;
62338;SDS011;48368;53.406;6.214;2023-12-07T12:58:41;20.80;;;12.73;;
62338;SDS011;48368;53.406;6.214;2023-12-07T13:01:23;25.23;;;15.30;;
62338;SDS011;48368;53.406;6.214;2023-12-07T13:03:49;26.00;;;14.63;;
62338;SDS011;48368;53.406;6.214;2023-12-07T13:06:23;23.20;;;13.68;;
62338;SDS011;48368;53.406;6.214;2023-12-07T13:08:53;23.50;;;14.27;;
62338;SDS011;48368;53.406;6.214;2023-12-07T13:11:22;25.45;;;15.30;;
62338;SDS011;48368;53.406;6.214;2023-12-07T13:13:50;27.48;;;15.77;;
62338;SDS011;48368;53.406;6.214;2023-12-07T13:16:23;27.27;;;16.05;;
62338;SDS011;48368;53.406;6.214;2023-12-07T13:19:04;28.35;;;16.08;;
62338;SDS011;48368;53.406;6.214;2023-12-07T13:21:45;28.83;;;16.20;;
62338;SDS011;48368;53.406;6.214;2023-12-07T13:24:14;28.90;;;18.17;;
62338;SDS011;48368;53.406;6.214;2023-12-07T13:26:40;29.13;;;16.27;;
62338;SDS011;48368;53.406;6.214;2023-12-07T13:29:05;33.05;;;19.92;;
62338;SDS011;48368;53.406;6.214;2023-12-07T13:31:41;32.78;;;20.27;;
62338;SDS011;48368;53.406;6.214;2023-12-07T13:34:19;32.03;;;19.48;;
62338;SDS011;48368;53.406;6.214;2023-12-07T13:36:51;35.85;;;20.58;;
62338;SDS011;48368;53.406;6.214;2023-12-07T13:39:23;33.47;;;19.35;;
62338;SDS011;48368;53.406;6.214;2023-12-07T13:41:49;33.10;;;18.33;;
62338;SDS011;48368;53.406;6.214;2023-12-07T13:44:15;33.22;;;20.60;;
62338;SDS011;48368;53.406;6.214;2023-12-07T13:50:40;48.13;;;21.73;;
62338;SDS011;48368;53.406;6.214;2023-12-07T13:56:09;66.80;;;20.77;;
62338;SDS011;48368;53.406;6.214;2023-12-07T13:58:41;37.53;;;20.08;;
62338;SDS011;48368;53.406;6.214;2023-12-07T14:01:10;44.47;;;21.95;;
62338;SDS011;48368;53.406;6.214;2023-12-07T14:03:51;54.13;;;23.13;;
62338;SDS011;48368;53.406;6.214;2023-12-07T14:09:14;36.33;;;20.20;;
62338;SDS011;48368;53.406;6.214;2023-12-07T14:11:40;43.25;;;21.17;;
62338;SDS011;48368;53.406;6.214;2023-12-07T14:14:14;40.35;;;19.30;;
62338;SDS011;48368;53.406;6.214;2023-12-07T14:16:56;35.05;;;18.02;;
62338;SDS011;48368;53.406;6.214;2023-12-07T14:19:22;41.92;;;19.77;;
62338;SDS011;48368;53.406;6.214;2023-12-07T14:21:57;39.92;;;18.02;;
62338;SDS011;48368;53.406;6.214;2023-12-07T14:24:29;37.92;;;18.00;;
62338;SDS011;48368;53.406;6.214;2023-12-07T14:27:10;49.17;;;19.90;;
62338;SDS011;48368;53.406;6.214;2023-12-07T14:29:43;37.03;;;18.42;;
62338;SDS011;48368;53.406;6.214;2023-12-07T14:32:14;32.58;;;17.40;;
62338;SDS011;48368;53.406;6.214;2023-12-07T14:34:55;37.67;;;18.17;;
62338;SDS011;48368;53.406;6.214;2023-12-07T14:37:24;40.13;;;18.83;;
62338;SDS011;48368;53.406;6.214;2023-12-07T14:39:50;89.60;;;21.50;;
62338;SDS011;48368;53.406;6.214;2023-12-07T14:42:15;37.85;;;18.05;;
62338;SDS011;48368;53.406;6.214;2023-12-07T14:47:41;32.95;;;16.95;;
62338;SDS011;48368;53.406;6.214;2023-12-07T14:50:22;34.25;;;18.30;;
62338;SDS011;48368;53.406;6.214;2023-12-07T14:52:57;34.58;;;17.38;;
62338;SDS011;48368;53.406;6.214;2023-12-07T14:55:22;30.00;;;15.30;;
62338;SDS011;48368;53.406;6.214;2023-12-07T14:57:57;33.78;;;18.63;;
62338;SDS011;48368;53.406;6.214;2023-12-07T15:00:26;36.22;;;19.30;;
62338;SDS011;48368;53.406;6.214;2023-12-07T15:02:54;33.78;;;18.08;;
62338;SDS011;48368;53.406;6.214;2023-12-07T15:05:27;32.60;;;17.73;;
62338;SDS011;48368;53.406;6.214;2023-12-07T15:07:59;29.40;;;15.63;;
62338;SDS011;48368;53.406;6.214;2023-12-07T15:10:28;42.85;;;20.83;;
62338;SDS011;48368;53.406;6.214;2023-12-07T15:12:57;33.85;;;16.85;;
62338;SDS011;48368;53.406;6.214;2023-12-07T15:15:22;38.08;;;19.05;;
62338;SDS011;48368;53.406;6.214;2023-12-07T15:18:07;36.28;;;17.48;;
62338;SDS011;48368;53.406;6.214;2023-12-07T15:20:56;40.22;;;20.08;;